createdAt,value
2022-08-16T00:36:49.538Z,99.99
2022-08-16T00:37:58.882Z,99.99
2022-08-16T00:39:58.380Z,99.99
2022-08-16T00:40:54.067Z,99.99
2022-08-16T00:42:57.539Z,99.99
2022-08-16T00:43:57.526Z,99.99
2022-08-16T00:46:22.432Z,99.99
2022-08-16T00:47:06.330Z,99.99
2022-08-16T00:48:54.692Z,99.99
2022-08-16T00:49:56.613Z,99.99
2022-08-16T00:51:58.667Z,99.99
2022-08-16T00:52:59.184Z,99.99
2022-08-16T00:54:51.614Z,99.99
2022-08-16T00:55:51.596Z,99.99
2022-08-16T00:58:00.227Z,99.99
2022-08-16T00:58:55.628Z,99.99
2022-08-16T01:00:59.661Z,99.99
2022-08-16T01:01:59.650Z,99.99
2022-08-16T01:03:52.798Z,99.99
2022-08-16T01:05:11.152Z,99.99
2022-08-16T01:07:01.697Z,99.99
2022-08-16T01:07:56.790Z,99.99
2022-08-16T01:10:01.948Z,99.99
2022-08-16T01:11:02.515Z,99.99
2022-08-16T01:13:06.422Z,99.99
2022-08-16T01:14:06.011Z,99.99
2022-08-16T01:16:10.374Z,99.99
2022-08-16T01:17:10.065Z,99.99
2022-08-16T01:19:14.394Z,99.99
2022-08-16T01:20:23.707Z,99.99
2022-08-16T01:22:49.688Z,99.99
2022-08-16T01:23:08.770Z,99.99
2022-08-16T01:25:00.109Z,99.99
2022-08-16T01:26:35.040Z,99.99
2022-08-16T01:28:04.741Z,99.99
2022-08-16T01:29:04.136Z,99.99
2022-08-16T01:30:04.124Z,99.99
2022-08-16T01:31:04.120Z,99.99
2022-08-16T01:32:04.139Z,99.99
2022-08-16T01:33:14.762Z,99.99
2022-08-16T01:34:04.126Z,99.99
2022-08-16T01:35:04.127Z,99.99
2022-08-16T01:36:11.709Z,99.99
2022-08-16T01:37:04.136Z,99.99
2022-08-16T01:38:04.135Z,99.99
2022-08-16T01:39:04.134Z,99.99
2022-08-16T01:40:07.227Z,99.99
2022-08-16T01:41:04.142Z,99.99
2022-08-16T01:42:04.151Z,99.99
2022-08-16T01:43:04.144Z,99.99
2022-08-16T01:44:04.152Z,99.99
2022-08-16T01:45:04.152Z,99.99
2022-08-16T01:46:30.176Z,99.99
2022-08-16T01:47:04.166Z,99.99
2022-08-16T01:48:04.160Z,99.99
2022-08-16T01:49:04.174Z,99.99
2022-08-16T01:50:41.732Z,99.99
2022-08-16T01:51:09.052Z,99.99
2022-08-16T01:52:04.178Z,99.99
2022-08-16T01:53:04.198Z,99.99
2022-08-16T01:54:04.179Z,99.99
2022-08-16T01:55:04.182Z,99.99
2022-08-16T01:56:04.204Z,99.99
2022-08-16T01:57:04.184Z,99.99
2022-08-16T01:58:04.194Z,99.99
2022-08-16T01:59:04.186Z,99.99
2022-08-16T02:00:04.190Z,99.99
2022-08-16T02:01:04.250Z,99.99
2022-08-16T02:02:04.222Z,99.99
2022-08-16T02:03:04.192Z,99.99
2022-08-16T02:04:11.270Z,99.99
2022-08-16T02:05:04.203Z,99.99
2022-08-16T02:06:04.201Z,99.99
2022-08-16T02:07:04.201Z,99.99
2022-08-16T02:08:04.217Z,99.99
2022-08-16T02:09:05.281Z,99.99
2022-08-16T02:10:04.238Z,99.99
2022-08-16T02:11:04.219Z,99.99
2022-08-16T02:12:50.856Z,99.99
2022-08-16T02:13:04.382Z,99.99
2022-08-16T02:14:04.239Z,99.99
2022-08-16T02:15:04.224Z,99.99
2022-08-16T02:16:04.234Z,99.99
2022-08-16T02:17:04.669Z,99.99
2022-08-16T02:18:04.233Z,99.99
2022-08-16T02:19:04.226Z,99.99
2022-08-16T02:20:04.285Z,99.99
2022-08-16T02:21:04.307Z,99.99
2022-08-16T02:22:08.942Z,99.99
2022-08-16T02:23:05.896Z,99.99
2022-08-16T02:24:04.242Z,99.99
2022-08-16T02:25:04.242Z,99.99
2022-08-16T02:26:04.243Z,99.99
2022-08-16T02:27:04.302Z,99.99
2022-08-16T02:28:04.256Z,99.99
2022-08-16T02:29:04.265Z,99.99
2022-08-16T02:30:04.929Z,99.99
2022-08-16T02:31:04.255Z,99.99
2022-08-16T02:32:50.099Z,99.99
2022-08-16T02:33:04.622Z,99.99
2022-08-16T02:34:06.563Z,99.99
2022-08-16T02:35:04.273Z,99.99
2022-08-16T02:36:04.285Z,99.99
2022-08-16T02:37:04.275Z,99.99
2022-08-16T02:38:08.855Z,99.99
2022-08-16T02:39:04.277Z,99.99
2022-08-16T02:40:04.316Z,99.99
2022-08-16T02:41:09.772Z,99.99
2022-08-16T02:42:04.279Z,99.99
2022-08-16T02:43:04.282Z,99.99
2022-08-16T02:44:04.287Z,99.99
2022-08-16T02:45:04.290Z,99.99
2022-08-16T02:46:07.445Z,99.99
2022-08-16T02:47:04.293Z,99.99
2022-08-16T02:48:29.849Z,99.99
2022-08-16T02:49:04.300Z,99.99
2022-08-16T02:50:55.019Z,99.99
2022-08-16T02:51:06.977Z,99.99
2022-08-16T02:52:04.313Z,99.99
2022-08-16T02:53:04.307Z,99.99
2022-08-16T02:54:04.319Z,99.99
2022-08-16T02:55:04.323Z,99.99
2022-08-16T02:56:04.323Z,99.99
2022-08-16T02:57:04.336Z,99.99
2022-08-16T02:58:04.317Z,99.99
2022-08-16T02:59:11.400Z,99.99
2022-08-16T03:00:34.395Z,99.99
2022-08-16T03:01:04.589Z,99.99
2022-08-16T03:02:08.873Z,99.99
2022-08-16T03:03:04.327Z,99.99
2022-08-16T03:04:29.278Z,99.99
2022-08-16T03:05:04.349Z,99.99
2022-08-16T03:06:04.336Z,99.99
2022-08-16T03:07:04.443Z,99.99
2022-08-16T03:08:04.335Z,99.99
2022-08-16T03:09:04.357Z,99.99
2022-08-16T03:10:04.350Z,99.99
2022-08-16T03:11:04.391Z,99.99
2022-08-16T03:12:04.358Z,99.99
2022-08-16T03:13:04.491Z,99.99
2022-08-16T03:14:07.382Z,99.99
2022-08-16T03:15:04.363Z,99.99
2022-08-16T03:16:04.361Z,99.99
2022-08-16T03:17:04.374Z,99.99
2022-08-16T03:18:04.371Z,99.99
2022-08-16T03:19:04.382Z,99.99
2022-08-16T03:20:04.359Z,99.99
2022-08-16T03:21:04.384Z,99.99
2022-08-16T03:22:04.361Z,99.99
2022-08-16T03:23:04.363Z,99.99
2022-08-16T03:24:04.367Z,99.99
2022-08-16T03:25:04.371Z,99.99
2022-08-16T03:26:04.371Z,99.99
2022-08-16T03:27:04.377Z,99.99
2022-08-16T03:28:04.373Z,99.99
2022-08-16T03:29:04.381Z,99.99
2022-08-16T03:30:17.469Z,99.99
2022-08-16T03:31:04.387Z,99.99
2022-08-16T03:32:04.441Z,99.99
2022-08-16T03:33:04.390Z,99.99
2022-08-16T03:34:04.407Z,99.99
2022-08-16T03:35:04.398Z,99.99
2022-08-16T03:36:30.164Z,99.99
2022-08-16T03:37:04.460Z,99.99
2022-08-16T03:38:04.411Z,99.99
2022-08-16T03:39:04.419Z,99.99
2022-08-16T03:40:04.416Z,99.99
2022-08-16T03:41:05.059Z,99.99
2022-08-16T03:42:04.406Z,99.99
2022-08-16T03:43:19.763Z,99.99
2022-08-16T03:44:04.403Z,99.99
2022-08-16T03:45:04.789Z,99.99
2022-08-16T03:46:04.490Z,99.99
2022-08-16T03:47:04.421Z,99.99
2022-08-16T03:48:04.415Z,99.99
2022-08-16T03:49:04.421Z,99.99
2022-08-16T03:50:04.427Z,99.99
2022-08-16T03:51:04.434Z,99.99
2022-08-16T03:52:04.454Z,99.99
2022-08-16T03:53:06.034Z,99.99
2022-08-16T03:54:04.444Z,99.99
2022-08-16T03:55:04.449Z,99.99
2022-08-16T03:56:04.442Z,99.99
2022-08-16T03:57:05.186Z,99.99
2022-08-16T03:58:04.453Z,99.99
2022-08-16T03:59:04.454Z,99.99
2022-08-16T04:00:05.649Z,99.99
2022-08-16T04:01:04.560Z,99.99
2022-08-16T04:02:10.648Z,99.99
2022-08-16T04:03:04.450Z,99.99
2022-08-16T04:04:04.448Z,99.99
2022-08-16T04:05:04.460Z,99.99
2022-08-16T04:06:04.454Z,99.99
2022-08-16T04:07:05.714Z,99.99
2022-08-16T04:08:23.882Z,99.99
2022-08-16T04:09:04.463Z,99.99
2022-08-16T04:10:36.262Z,99.99
2022-08-16T04:11:04.478Z,99.99
2022-08-16T04:12:04.464Z,99.99
2022-08-16T04:13:04.909Z,99.99
2022-08-16T04:14:08.582Z,99.99
2022-08-16T04:15:04.476Z,99.99
2022-08-16T04:16:06.555Z,99.99
2022-08-16T04:17:04.474Z,99.99
2022-08-16T04:18:04.492Z,99.99
2022-08-16T04:19:04.913Z,99.99
2022-08-16T04:20:04.508Z,99.99
2022-08-16T04:21:04.479Z,99.99
2022-08-16T04:22:08.811Z,99.99
2022-08-16T04:23:04.503Z,99.99
2022-08-16T04:24:07.961Z,99.99
2022-08-16T04:25:04.484Z,99.99
2022-08-16T04:26:04.516Z,99.99
2022-08-16T04:27:04.534Z,99.99
2022-08-16T04:28:52.205Z,99.99
2022-08-16T04:29:16.350Z,99.99
2022-08-16T04:30:04.501Z,99.99
2022-08-16T04:31:04.503Z,99.99
2022-08-16T04:32:04.513Z,99.99
2022-08-16T04:33:04.675Z,99.99
2022-08-16T04:34:04.510Z,99.99
2022-08-16T04:35:08.457Z,99.99
2022-08-16T04:36:04.826Z,99.99
2022-08-16T04:37:04.514Z,99.99
2022-08-16T04:38:10.558Z,99.99
2022-08-16T04:39:04.523Z,99.99
2022-08-16T04:40:05.733Z,99.99
2022-08-16T04:41:04.532Z,99.99
2022-08-16T04:42:11.316Z,99.99
2022-08-16T04:43:04.528Z,99.99
2022-08-16T04:44:32.886Z,99.99
2022-08-16T04:45:04.523Z,99.99
2022-08-16T04:46:04.539Z,99.99
2022-08-16T04:47:23.991Z,99.99
2022-08-16T04:48:04.536Z,99.99
2022-08-16T04:49:04.537Z,99.99
2022-08-16T04:50:04.585Z,99.99
2022-08-16T04:51:11.679Z,99.99
2022-08-16T04:52:04.566Z,99.99
2022-08-16T04:53:04.551Z,99.99
2022-08-16T04:54:04.600Z,99.99
2022-08-16T04:55:04.566Z,99.99
2022-08-16T04:56:04.556Z,99.99
2022-08-16T04:57:04.562Z,99.99
2022-08-16T04:58:04.568Z,99.99
2022-08-16T04:59:04.559Z,99.99
2022-08-16T05:00:31.750Z,99.99
2022-08-16T05:01:07.875Z,99.99
2022-08-16T05:02:04.599Z,99.99
2022-08-16T05:03:07.454Z,99.99
2022-08-16T05:04:04.564Z,99.99
2022-08-16T05:05:04.586Z,99.99
2022-08-16T05:06:05.278Z,99.99
2022-08-16T05:07:04.571Z,99.99
2022-08-16T05:08:29.700Z,99.99
2022-08-16T05:09:04.597Z,99.99
2022-08-16T05:10:04.582Z,99.99
2022-08-16T05:11:05.568Z,99.99
2022-08-16T05:12:04.598Z,99.99
2022-08-16T05:13:04.591Z,99.99
2022-08-16T05:14:07.130Z,99.99
2022-08-16T05:15:04.597Z,99.99
2022-08-16T05:16:04.619Z,99.99
2022-08-16T05:17:04.632Z,99.99
2022-08-16T05:18:04.642Z,99.99
2022-08-16T05:19:04.605Z,99.99
2022-08-16T05:20:39.402Z,99.99
2022-08-16T05:21:09.753Z,99.99
2022-08-16T05:22:04.615Z,99.99
2022-08-16T05:23:04.626Z,99.99
2022-08-16T05:24:06.915Z,99.99
2022-08-16T05:25:09.043Z,99.99
2022-08-16T05:26:04.632Z,99.99
2022-08-16T05:27:11.536Z,99.99
2022-08-16T05:28:04.662Z,99.99
2022-08-16T05:29:04.801Z,99.99
2022-08-16T05:30:35.812Z,99.99
2022-08-16T05:31:04.633Z,99.99
2022-08-16T05:32:04.637Z,99.99
2022-08-16T05:33:04.646Z,99.99
2022-08-16T05:34:04.673Z,99.99
2022-08-16T05:35:04.669Z,99.99
2022-08-16T05:36:04.646Z,99.99
2022-08-16T05:37:04.654Z,99.99
2022-08-16T05:38:04.653Z,99.99
2022-08-16T05:39:04.655Z,99.99
2022-08-16T05:40:06.081Z,99.99
2022-08-16T05:41:04.668Z,99.99
2022-08-16T05:42:04.663Z,99.99
2022-08-16T05:43:04.677Z,99.99
2022-08-16T05:44:05.546Z,99.99
2022-08-16T05:45:06.849Z,99.99
2022-08-16T05:46:04.697Z,99.99
2022-08-16T05:47:04.682Z,99.99
2022-08-16T05:48:04.682Z,99.99
2022-08-16T05:49:06.023Z,99.99
2022-08-16T05:50:04.686Z,99.99
2022-08-16T05:51:04.754Z,99.99
2022-08-16T05:52:04.697Z,99.99
2022-08-16T05:53:05.231Z,99.99
2022-08-16T05:54:04.696Z,99.99
2022-08-16T05:55:04.703Z,99.99
2022-08-16T05:56:04.702Z,99.99
2022-08-16T05:57:04.706Z,99.99
2022-08-16T05:58:04.709Z,99.99
2022-08-16T05:59:06.112Z,99.99
2022-08-16T06:00:09.209Z,99.99
2022-08-16T06:01:04.749Z,99.99
2022-08-16T06:02:06.136Z,99.99
2022-08-16T06:03:04.725Z,99.99
2022-08-16T06:04:04.726Z,99.99
2022-08-16T06:05:04.734Z,99.99
2022-08-16T06:06:04.754Z,99.99
2022-08-16T06:07:06.925Z,99.99
2022-08-16T06:08:04.748Z,99.99
2022-08-16T06:09:04.756Z,99.99
2022-08-16T06:10:04.765Z,99.99
2022-08-16T06:11:09.548Z,99.99
2022-08-16T06:12:04.774Z,99.99
2022-08-16T06:13:04.851Z,99.99
2022-08-16T06:14:04.815Z,99.31
2022-08-16T06:15:08.008Z,98.35
2022-08-16T06:16:04.808Z,98.10
2022-08-16T06:17:05.241Z,96.94
2022-08-16T06:18:04.836Z,95.98
2022-08-16T06:19:05.133Z,95.54
2022-08-16T06:20:04.860Z,94.09
2022-08-16T06:21:04.864Z,93.70
2022-08-16T06:22:04.877Z,92.68
2022-08-16T06:23:17.111Z,92.10
2022-08-16T06:24:54.155Z,91.04
2022-08-16T06:25:04.901Z,89.92
2022-08-16T06:26:07.656Z,88.57
2022-08-16T06:27:04.925Z,88.18
2022-08-16T06:28:08.834Z,87.60
2022-08-16T06:29:04.948Z,86.68
2022-08-16T06:30:04.960Z,86.48
2022-08-16T06:31:04.979Z,86.04
2022-08-16T06:32:04.997Z,85.07
2022-08-16T06:33:05.013Z,84.20
2022-08-16T06:34:05.027Z,82.98
2022-08-16T06:35:05.023Z,83.37
2022-08-16T06:36:05.038Z,82.59
2022-08-16T06:37:05.110Z,81.91
2022-08-16T06:38:05.074Z,81.91
2022-08-16T06:39:06.077Z,80.88
2022-08-16T06:40:05.152Z,80.21
2022-08-16T06:41:05.427Z,79.91
2022-08-16T06:42:05.116Z,79.28
2022-08-16T06:43:05.200Z,79.08
2022-08-16T06:44:05.144Z,78.59
2022-08-16T06:45:05.159Z,78.21
2022-08-16T06:46:05.178Z,76.98
2022-08-16T06:47:05.197Z,76.40
2022-08-16T06:48:05.222Z,75.43
2022-08-16T06:49:05.385Z,75.14
2022-08-16T06:50:05.232Z,74.85
2022-08-16T06:51:05.654Z,74.50
2022-08-16T06:52:05.297Z,74.40
2022-08-16T06:53:09.349Z,74.11
2022-08-16T06:54:05.284Z,73.33
2022-08-16T06:55:05.307Z,72.94
2022-08-16T06:56:05.333Z,72.55
2022-08-16T06:57:05.362Z,72.85
2022-08-16T06:58:08.847Z,72.55
2022-08-16T06:59:05.360Z,72.07
2022-08-16T07:00:05.373Z,72.65
2022-08-16T07:01:09.651Z,73.24
2022-08-16T07:02:05.522Z,72.94
2022-08-16T07:03:27.619Z,72.75
2022-08-16T07:04:12.166Z,72.45
2022-08-16T07:05:15.230Z,72.65
2022-08-16T07:06:05.469Z,72.55
2022-08-16T07:07:05.488Z,72.30
2022-08-16T07:08:05.571Z,72.69
2022-08-16T07:09:09.689Z,72.49
2022-08-16T07:10:08.367Z,72.59
2022-08-16T07:11:05.538Z,72.30
2022-08-16T07:12:05.937Z,71.13
2022-08-16T07:13:11.471Z,70.84
2022-08-16T07:14:24.568Z,71.07
2022-08-16T07:15:05.603Z,70.58
2022-08-16T07:16:05.630Z,70.58
2022-08-16T07:17:08.305Z,71.26
2022-08-16T07:18:05.682Z,71.07
2022-08-16T07:19:05.673Z,71.17
2022-08-16T07:20:34.878Z,70.68
2022-08-16T07:21:05.700Z,69.94
2022-08-16T07:22:05.720Z,69.16
2022-08-16T07:23:13.211Z,69.35
2022-08-16T07:24:06.338Z,68.67
2022-08-16T07:25:05.768Z,68.48
2022-08-16T07:26:05.808Z,68.48
2022-08-16T07:27:08.565Z,68.38
2022-08-16T07:28:05.816Z,67.73
2022-08-16T07:29:05.844Z,67.54
2022-08-16T07:30:05.858Z,66.76
2022-08-16T07:31:05.863Z,66.66
2022-08-16T07:32:05.879Z,66.86
2022-08-16T07:33:05.901Z,66.56
2022-08-16T07:34:05.910Z,65.79
2022-08-16T07:35:06.004Z,66.17
2022-08-16T07:36:05.947Z,66.47
2022-08-16T07:37:05.986Z,66.56
2022-08-16T07:38:05.991Z,65.88
2022-08-16T07:39:06.011Z,65.92
2022-08-16T07:40:11.086Z,65.43
2022-08-16T07:41:09.931Z,65.04
2022-08-16T07:42:06.883Z,65.04
2022-08-16T07:43:06.113Z,65.53
2022-08-16T07:44:16.149Z,66.69
2022-08-16T07:45:10.170Z,66.11
2022-08-16T07:46:06.117Z,65.23
2022-08-16T07:47:06.149Z,65.33
2022-08-16T07:48:11.602Z,64.36
2022-08-16T07:49:11.390Z,64.94
2022-08-16T07:50:07.607Z,64.69
2022-08-16T07:51:09.248Z,64.49
2022-08-16T07:52:19.140Z,64.49
2022-08-16T07:53:06.243Z,65.46
2022-08-16T07:54:09.325Z,65.43
2022-08-16T07:55:06.291Z,65.26
2022-08-16T07:56:06.291Z,65.07
2022-08-16T07:57:06.330Z,64.29
2022-08-16T07:58:06.344Z,64.59
2022-08-16T07:59:06.359Z,65.07
2022-08-16T08:00:06.366Z,64.49
2022-08-16T08:01:10.684Z,64.78
2022-08-16T08:02:06.427Z,64.87
2022-08-16T08:03:06.419Z,64.59
2022-08-16T08:04:06.447Z,64.39
2022-08-16T08:05:06.452Z,64.59
2022-08-16T08:06:06.512Z,64.97
2022-08-16T08:07:08.953Z,64.59
2022-08-16T08:08:11.497Z,65.26
2022-08-16T08:09:06.525Z,64.69
2022-08-16T08:10:06.549Z,64.49
2022-08-16T08:11:09.156Z,64.87
2022-08-16T08:12:06.574Z,64.69
2022-08-16T08:13:06.605Z,64.59
2022-08-16T08:14:07.835Z,65.17
2022-08-16T08:15:09.772Z,64.78
2022-08-16T08:16:06.640Z,64.78
2022-08-16T08:17:06.669Z,65.17
2022-08-16T08:18:29.982Z,64.69
2022-08-16T08:19:06.710Z,64.69
2022-08-16T08:20:06.718Z,64.29
2022-08-16T08:21:06.735Z,64.87
2022-08-16T08:22:06.732Z,64.87
2022-08-16T08:23:06.743Z,64.49
2022-08-16T08:24:09.346Z,64.78
2022-08-16T08:25:06.798Z,64.29
2022-08-16T08:26:10.027Z,63.84
2022-08-16T08:27:06.811Z,63.90
2022-08-16T08:28:06.819Z,63.71
2022-08-16T08:29:08.532Z,64.20
2022-08-16T08:30:49.222Z,64.39
2022-08-16T08:31:06.875Z,64.10
2022-08-16T08:32:59.773Z,64.39
2022-08-16T08:33:07.174Z,64.49
2022-08-16T08:34:06.916Z,64.32
2022-08-16T08:35:07.059Z,64.78
2022-08-16T08:36:06.939Z,64.87
2022-08-16T08:37:06.950Z,64.69
2022-08-16T08:38:06.946Z,64.49
2022-08-16T08:39:13.068Z,64.78
2022-08-16T08:40:07.018Z,64.69
2022-08-16T08:41:06.993Z,65.17
2022-08-16T08:42:06.994Z,65.36
2022-08-16T08:43:12.662Z,64.78
2022-08-16T08:44:28.563Z,64.45
2022-08-16T08:45:07.036Z,65.14
2022-08-16T08:46:18.441Z,65.26
2022-08-16T08:47:09.254Z,65.82
2022-08-16T08:48:07.069Z,66.02
2022-08-16T08:49:07.077Z,66.05
2022-08-16T08:50:07.090Z,66.83
2022-08-16T08:51:09.006Z,66.14
2022-08-16T08:52:08.121Z,66.14
2022-08-16T08:53:07.157Z,65.75
2022-08-16T08:54:09.305Z,65.36
2022-08-16T08:55:10.605Z,65.66
2022-08-16T08:56:22.940Z,65.07
2022-08-16T08:57:07.162Z,64.78
2022-08-16T08:58:07.158Z,64.87
2022-08-16T08:59:13.540Z,64.59
2022-08-16T09:00:07.976Z,63.51
2022-08-16T09:01:07.210Z,64.59
2022-08-16T09:02:07.213Z,64.75
2022-08-16T09:03:07.994Z,65.33
2022-08-16T09:04:07.261Z,64.75
2022-08-16T09:05:14.953Z,64.75
2022-08-16T09:06:07.254Z,65.04
2022-08-16T09:07:07.258Z,65.43
2022-08-16T09:08:07.263Z,65.53
2022-08-16T09:09:07.269Z,65.53
2022-08-16T09:10:20.677Z,64.75
2022-08-16T09:11:07.475Z,64.65
2022-08-16T09:12:07.317Z,64.81
2022-08-16T09:13:08.046Z,65.11
2022-08-16T09:14:07.327Z,65.40
2022-08-16T09:15:07.321Z,65.30
2022-08-16T09:16:07.352Z,66.08
2022-08-16T09:17:21.614Z,65.50
2022-08-16T09:18:25.451Z,64.62
2022-08-16T09:20:07.366Z,65.50
2022-08-16T09:21:09.548Z,66.08
2022-08-16T09:22:07.395Z,65.98
2022-08-16T09:23:07.387Z,66.47
2022-08-16T09:24:10.055Z,66.08
2022-08-16T09:25:10.083Z,66.47
2022-08-16T09:26:44.574Z,65.98
2022-08-16T09:27:07.451Z,65.79
2022-08-16T09:28:08.923Z,65.79
2022-08-16T09:29:16.899Z,65.79
2022-08-16T09:30:33.796Z,65.50
2022-08-16T09:31:07.465Z,64.42
2022-08-16T09:32:07.623Z,63.55
2022-08-16T09:33:07.669Z,63.65
2022-08-16T09:34:07.496Z,64.49
2022-08-16T09:35:07.506Z,65.30
2022-08-16T09:36:12.015Z,65.50
2022-08-16T09:37:17.672Z,64.42
2022-08-16T09:38:08.771Z,64.10
2022-08-16T09:39:07.526Z,64.78
2022-08-16T09:40:31.780Z,63.52
2022-08-16T09:41:14.854Z,64.78
2022-08-16T09:42:07.566Z,65.46
2022-08-16T09:43:07.723Z,66.05
2022-08-16T09:45:10.619Z,65.95
2022-08-16T09:45:13.040Z,65.56
2022-08-16T09:46:44.418Z,64.69
2022-08-16T09:47:10.352Z,64.69
2022-08-16T09:48:07.583Z,64.20
2022-08-16T09:49:08.500Z,64.46
2022-08-16T09:50:11.715Z,64.59
2022-08-16T09:51:07.619Z,64.46
2022-08-16T09:52:07.636Z,64.46
2022-08-16T09:53:07.629Z,64.65
2022-08-16T09:54:09.607Z,65.43
2022-08-16T09:55:07.657Z,66.02
2022-08-16T09:56:11.480Z,66.69
2022-08-16T09:57:07.660Z,67.41
2022-08-16T09:58:07.677Z,66.14
2022-08-16T09:59:08.165Z,65.46
2022-08-16T10:00:44.931Z,65.95
2022-08-16T10:01:08.452Z,66.05
2022-08-16T10:02:26.117Z,66.24
2022-08-16T10:03:10.102Z,66.05
2022-08-16T10:04:29.749Z,65.66
2022-08-16T10:05:07.810Z,64.98
2022-08-16T10:06:11.251Z,64.49
2022-08-16T10:07:15.198Z,64.59
2022-08-16T10:08:25.406Z,65.08
2022-08-16T10:09:10.440Z,64.65
2022-08-16T10:10:11.560Z,63.59
2022-08-16T10:11:09.449Z,63.39
2022-08-16T10:12:11.323Z,64.07
2022-08-16T10:13:07.821Z,63.59
2022-08-16T10:14:07.792Z,63.49
2022-08-16T10:15:07.807Z,64.85
2022-08-16T10:16:07.853Z,64.65
2022-08-16T10:17:07.809Z,63.68
2022-08-16T10:19:01.033Z,61.93
2022-08-16T10:19:07.981Z,61.05
2022-08-16T10:20:07.834Z,61.25
2022-08-16T10:21:07.841Z,62.51
2022-08-16T10:22:07.848Z,62.51
2022-08-16T10:23:09.808Z,62.13
2022-08-16T10:24:07.861Z,63.32
2022-08-16T10:25:07.871Z,62.81
2022-08-16T10:27:16.138Z,61.83
2022-08-16T10:27:26.537Z,62.13
2022-08-16T10:28:28.085Z,62.61
2022-08-16T10:29:07.906Z,61.44
2022-08-16T10:30:24.948Z,61.90
2022-08-16T10:31:07.947Z,61.71
2022-08-16T10:32:08.069Z,61.41
2022-08-16T10:33:07.933Z,61.71
2022-08-16T10:35:07.957Z,62.35
2022-08-16T10:36:07.960Z,62.74
2022-08-16T10:37:07.973Z,61.77
2022-08-16T10:38:09.638Z,61.58
2022-08-16T10:39:08.538Z,61.77
2022-08-16T10:40:28.804Z,61.97
2022-08-16T10:41:09.018Z,61.68
2022-08-16T10:42:08.005Z,62.65
2022-08-16T10:43:08.379Z,63.23
2022-08-16T10:44:09.359Z,63.42
2022-08-16T10:45:08.020Z,63.42
2022-08-16T10:46:39.470Z,63.42
2022-08-16T10:47:09.048Z,62.84
2022-08-16T10:48:28.034Z,62.07
2022-08-16T10:49:08.051Z,62.35
2022-08-16T10:50:19.551Z,62.26
2022-08-16T10:51:08.063Z,62.07
2022-08-16T10:52:18.729Z,62.65
2022-08-16T10:53:09.133Z,63.04
2022-08-16T10:54:08.091Z,61.97
2022-08-16T10:56:55.844Z,62.07
2022-08-16T10:57:12.206Z,62.65
2022-08-16T10:58:11.772Z,62.55
2022-08-16T11:00:21.220Z,63.04
2022-08-16T11:02:58.871Z,62.74
2022-08-16T11:03:43.060Z,63.04
2022-08-16T11:05:04.931Z,62.65
2022-08-16T11:05:10.604Z,63.62
2022-08-16T11:06:12.209Z,63.71
2022-08-16T11:07:08.766Z,63.71
2022-08-16T11:08:08.183Z,63.04
2022-08-16T11:09:25.215Z,62.74
2022-08-16T11:11:12.964Z,61.97
2022-08-16T11:12:14.378Z,61.87
2022-08-16T11:14:11.699Z,61.58
2022-08-16T11:15:12.106Z,61.48
2022-08-16T11:17:11.195Z,60.90
2022-08-16T11:18:48.292Z,61.19
2022-08-16T11:19:12.911Z,61.09
2022-08-16T11:21:08.288Z,62.45
2022-08-16T11:22:22.744Z,61.77
2022-08-16T11:23:09.300Z,60.35
2022-08-16T11:24:39.693Z,59.57
2022-08-16T11:25:12.181Z,60.05
2022-08-16T11:26:23.631Z,58.89
2022-08-16T11:27:32.563Z,58.69
2022-08-16T11:28:08.321Z,58.79
2022-08-16T11:29:13.217Z,58.79
2022-08-16T11:30:09.184Z,58.59
2022-08-16T11:31:08.375Z,57.92
2022-08-16T11:32:08.360Z,58.69
2022-08-16T11:33:08.367Z,58.98
2022-08-16T11:34:08.380Z,59.95
2022-08-16T11:35:13.895Z,60.25
2022-08-16T11:36:25.009Z,59.57
2022-08-16T11:37:14.999Z,58.98
2022-08-16T11:38:47.639Z,58.69
2022-08-16T11:39:10.337Z,58.50
2022-08-16T11:40:09.309Z,58.95
2022-08-16T11:41:09.424Z,58.98
2022-08-16T11:42:28.233Z,59.08
2022-08-16T11:43:10.176Z,58.50
2022-08-16T11:44:08.448Z,58.69
2022-08-16T11:45:08.447Z,58.11
2022-08-16T11:46:43.481Z,57.04
2022-08-16T11:47:09.551Z,57.14
2022-08-16T11:48:08.476Z,57.72
2022-08-16T11:49:13.257Z,57.92
2022-08-16T11:50:08.483Z,58.59
2022-08-16T11:51:08.489Z,58.31
2022-08-16T11:52:08.497Z,58.21
2022-08-16T11:53:09.529Z,56.85
2022-08-16T11:54:08.908Z,56.65
2022-08-16T11:55:08.561Z,56.59
2022-08-16T11:56:08.534Z,56.85
2022-08-16T11:57:08.898Z,56.87
2022-08-16T11:58:08.532Z,56.87
2022-08-16T11:59:09.563Z,56.97
2022-08-16T12:00:08.558Z,56.77
2022-08-16T12:01:10.716Z,56.87
2022-08-16T12:02:32.107Z,57.17
2022-08-16T12:03:08.587Z,56.29
2022-08-16T12:04:08.614Z,56.59
2022-08-16T12:05:09.604Z,56.10
2022-08-16T12:06:11.137Z,55.41
2022-08-16T12:07:08.605Z,55.22
2022-08-16T12:08:08.602Z,55.80
2022-08-16T12:09:08.641Z,55.90
2022-08-16T12:10:08.611Z,55.61
2022-08-16T12:11:09.635Z,55.32
2022-08-16T12:12:08.650Z,55.93
2022-08-16T12:13:10.181Z,55.03
2022-08-16T12:14:08.654Z,55.03
2022-08-16T12:15:08.667Z,54.66
2022-08-16T12:16:09.119Z,54.25
2022-08-16T12:17:09.678Z,54.15
2022-08-16T12:18:08.678Z,54.35
2022-08-16T12:19:10.381Z,54.64
2022-08-16T12:20:10.735Z,54.74
2022-08-16T12:21:09.795Z,54.93
2022-08-16T12:22:19.095Z,54.74
2022-08-16T12:23:09.739Z,55.41
2022-08-16T12:24:08.714Z,54.74
2022-08-16T12:25:08.760Z,55.13
2022-08-16T12:26:10.520Z,54.74
2022-08-16T12:27:08.746Z,53.86
2022-08-16T12:28:08.754Z,53.96
2022-08-16T12:29:09.783Z,54.71
2022-08-16T12:30:08.773Z,54.71
2022-08-16T12:31:08.778Z,55.58
2022-08-16T12:32:35.732Z,55.58
2022-08-16T12:33:08.807Z,55.88
2022-08-16T12:34:09.772Z,55.88
2022-08-16T12:35:10.112Z,56.56
2022-08-16T12:36:09.972Z,56.56
2022-08-16T12:37:11.728Z,56.95
2022-08-16T12:38:41.174Z,57.53
2022-08-16T12:39:08.859Z,57.04
2022-08-16T12:40:23.679Z,56.85
2022-08-16T12:41:10.388Z,57.04
2022-08-16T12:42:08.853Z,56.87
2022-08-16T12:43:08.880Z,56.29
2022-08-16T12:44:08.862Z,56.46
2022-08-16T12:45:08.869Z,56.10
2022-08-16T12:46:08.878Z,55.68
2022-08-16T12:47:09.924Z,56.56
2022-08-16T12:48:31.621Z,55.98
2022-08-16T12:49:08.901Z,55.29
2022-08-16T12:50:10.540Z,55.58
2022-08-16T12:51:19.599Z,55.78
2022-08-16T12:52:08.923Z,55.98
2022-08-16T12:53:09.941Z,55.78
2022-08-16T12:54:08.955Z,55.29
2022-08-16T12:55:08.941Z,55.10
2022-08-16T12:56:08.964Z,55.10
2022-08-16T12:57:14.072Z,54.71
2022-08-16T12:58:13.992Z,55.10
2022-08-16T12:59:11.379Z,55.19
2022-08-16T13:00:08.984Z,56.46
2022-08-16T13:01:09.022Z,57.04
2022-08-16T13:02:12.605Z,57.04
2022-08-16T13:03:08.998Z,57.33
2022-08-16T13:04:11.928Z,57.53
2022-08-16T13:05:10.033Z,57.53
2022-08-16T13:06:09.038Z,57.53
2022-08-16T13:07:09.029Z,57.14
2022-08-16T13:08:09.030Z,57.04
2022-08-16T13:09:09.054Z,56.65
2022-08-16T13:10:20.795Z,56.95
2022-08-16T13:11:10.074Z,57.72
2022-08-16T13:12:09.731Z,57.14
2022-08-16T13:13:09.264Z,56.95
2022-08-16T13:14:09.075Z,56.56
2022-08-16T13:15:09.092Z,55.98
2022-08-16T13:16:15.275Z,55.98
2022-08-16T13:17:18.504Z,55.39
2022-08-16T13:18:24.104Z,55.78
2022-08-16T13:19:09.145Z,55.68
2022-08-16T13:20:10.984Z,55.58
2022-08-16T13:21:09.644Z,55.98
2022-08-16T13:22:09.135Z,56.46
2022-08-16T13:23:10.152Z,57.14
2022-08-16T13:24:09.153Z,56.95
2022-08-16T13:25:09.191Z,55.78
2022-08-16T13:26:09.233Z,55.68
2022-08-16T13:27:09.191Z,55.19
2022-08-16T13:28:09.178Z,55.68
2022-08-16T13:29:10.210Z,56.26
2022-08-16T13:30:11.359Z,55.10
2022-08-16T13:31:09.245Z,54.61
2022-08-16T13:32:09.199Z,55.10
2022-08-16T13:33:12.477Z,55.00
2022-08-16T13:34:09.584Z,54.61
2022-08-16T13:35:11.823Z,54.42
2022-08-16T13:36:17.210Z,54.52
2022-08-16T13:37:09.235Z,55.00
2022-08-16T13:38:09.257Z,54.71
2022-08-16T13:39:09.261Z,54.13
2022-08-16T13:40:09.437Z,54.61
2022-08-16T13:41:10.289Z,55.00
2022-08-16T13:42:09.293Z,55.29
2022-08-16T13:43:11.435Z,55.00
2022-08-16T13:44:09.650Z,55.58
2022-08-16T13:45:09.292Z,55.41
2022-08-16T13:46:09.323Z,55.51
2022-08-16T13:47:10.327Z,55.22
2022-08-16T13:48:09.317Z,55.22
2022-08-16T13:49:09.354Z,54.93
2022-08-16T13:50:09.421Z,54.54
2022-08-16T13:51:09.331Z,55.13
2022-08-16T13:52:09.437Z,54.93
2022-08-16T13:53:10.354Z,54.64
2022-08-16T13:54:09.443Z,54.74
2022-08-16T13:55:17.554Z,54.83